Nearby METAR Reports

 

CYUL - Montreal/Dorval, Quebec, Canada
Distance from station: ENE 6km
Updated: 09/20/2018 15:00 EDT
Overcast
Overcast
 Wind from WNW
Wind: WNW 4 km/h
Temperature: 16°C
Dew Point: 10°C
Humidity: 68%
Barometer: 1024.4 hPa
Clouds: Overcast
Visibility: 24 km
Cloud details: Few Clouds 610 m
Mostly cloudy 3048 m
Overcast 5486 m
2018/09/20 19:00 CYUL 201900Z 29002KT 15SM FEW020 BKN100 OVC180 16/10 A3025 RMK SC1AC6AC1 SLP246
CWVQ - Ste Anne De Bell, Quebec, Canada
Distance from station: WSW 10km
Updated: 09/20/2018 15:00 EDT

 Wind from E
Wind: E 2 km/h
Temperature: 16°C
Dew Point: 10°C
Humidity: 68%
2018/09/20 19:00 CWVQ 201900Z AUTO 09001KT 16/10 RMK AO1 SLP244 T01570103 58006
 
CWTA - Mc Tavish (aut), Quebec, Canada
Distance from station: ENE 18km
Updated: 09/20/2018 15:00 EDT

 Wind from N
Wind: N 6 km/h
Temperature: 16°C
Dew Point: 10°C
Humidity: 68%
2018/09/20 19:00 CWTA 201900Z AUTO 35003KT 16/10 RMK AO1 SLP246 T01570098 56006
CYMX - Montreal/Mirabel, Quebec, Canada
Distance from station: NW 29km
Updated: 09/20/2018 15:00 EDT
Mostly cloudy
Mostly cloudy
 Wind from calm
Wind: Calm
Temperature: 15°C
Dew Point: 11°C
Humidity: 77%
Barometer: 1024.7 hPa
Clouds: Mostly cloudy
Visibility: 32 km
Cloud details: Few Clouds 457 m
Mostly cloudy 2774 m
Mostly cloudy 7620 m
2018/09/20 19:00 CYMX 201900Z 00000KT 20SM FEW015 BKN091 BKN250 15/11 A3026 RMK SF1AC5CI2 SF TR SLP251
 
CYHU - Saint Hubert Arp, Quebec, Canada
Distance from station: ENE 31km
Updated: 09/20/2018 15:00 EDT
Overcast
Overcast
 Wind from varies
Wind: varies 4 km/h
Temperature: 15°C
Dew Point: 10°C
Humidity: 72%
Barometer: 1024.4 hPa
Clouds: Overcast
Visibility: 14 km
Cloud details: Overcast 3048 m
2018/09/20 19:00 CYHU 201900Z AUTO VRB02KT 9SM OVC100 15/10 A3025 RMK SLP247
CWIT - St Clothilde (a, Quebec, Canada
Distance from station: SSE 33km
Updated: 09/20/2018 15:00 EDT

 Wind from NNE
Wind: NNE 2 km/h
Temperature: 16°C
Dew Point: 11°C
Humidity: 72%
2018/09/20 19:00 CWIT 201900Z AUTO 02001KT 16/11 RMK AO1 SLP242 T01590109 56001
 
CWIZ - L'acadie, Quebec, Canada
Distance from station: ESE 41km
Updated: 09/20/2018 15:00 EDT

 Wind from NE
Wind: NE 4 km/h
Temperature: 16°C
Dew Point: 10°C
Humidity: 68%
2018/09/20 19:00 CWIZ 201900Z AUTO 04002KT 16/10 RMK AO1 T01630101
CWHM - Varennes, Quebec, Canada
Distance from station: NE 45km
Updated: 10/25/2016 10:00 EDT
NOT Current

 Wind from W
Wind: W 19 km/h, Gust: 28 km/h
Temperature: 4°C
Wind Chill: 0°C
Dew Point: -2°C
Humidity: 65%
2016/10/25 14:00 CWHM 251400Z AUTO 28010G15KT 04/M02 RMK AO1 PK WND 28018/1302 T00391017
 
CWEW - L'assomption, Quebec, Canada
Distance from station: NE 50km
Updated: 09/20/2018 15:00 EDT

 Wind from E
Wind: E 4 km/h
Temperature: 16°C
Dew Point: 10°C
Humidity: 68%
2018/09/20 19:00 CWEW 201900Z AUTO 08002KT 16/10 RMK AO1 SLP249 T01550097 58006
CWBZ - St Anicet, Quebec, Canada
Distance from station: SW 52km
Updated: 09/20/2018 15:00 EDT

 Wind from NE
Wind: NE 11 km/h
Temperature: 16°C
Dew Point: 10°C
Humidity: 68%
2018/09/20 19:00 CWBZ 201900Z AUTO 05006KT 16/10 RMK AO1 T01610095 57002
 
KFSO - Highgate, Vermont, USA
Distance from station: SE 79km
Updated: 09/20/2018 15:15 EDT
Partly cloudy
Partly cloudy
 Wind from NW
Wind: NW 6 km/h
Temperature: 16°C
Dew Point: 12°C
Humidity: 77%
Barometer: 1024.4 hPa
Clouds: Partly cloudy
Visibility: 16 km
Cloud details: Partly cloudy 3353 m
2018/09/20 19:15 KFSO 201915Z AUTO 32003KT 10SM SCT110 16/12 A3025 RMK AO2 T01600121
CMGB - Granby, Quebec, Canada
Distance from station: E 81km
Updated: 09/20/2018 15:15 EDT

 Wind from NNW
Wind: NNW 6 km/h
Temperature: 17°C
Dew Point: 13°C
Humidity: 77%
2018/09/20 19:15 CMGB 201915Z AUTO 33003KT 17/13 RMK AO1 SLP239 T01680126 56003
 
CWJT - St Jovite (autob, Quebec, Canada
Distance from station: NW 88km
Updated: 09/20/2018 15:00 EDT

 Wind from SW
Wind: SW 4 km/h
Temperature: 18°C
Dew Point: 10°C
Humidity: 60%
2018/09/20 19:00 CWJT 201900Z AUTO 22002KT 18/10 RMK AO1 SLP237 T01800099 56007
CWFQ - Frelighsburg, Quebec, Canada
Distance from station: ESE 90km
Updated: 09/20/2018 15:00 EDT

 Wind from N
Wind: N 7 km/h
Temperature: 16°C
Dew Point: 11°C
Humidity: 72%
2018/09/20 19:00 CWFQ 201900Z AUTO 35004KT 16/11 RMK AO1 SLP240 T01600112 50000
 
KPBG - Plattsburgh Afb, New York, USA
Distance from station: SSE 93km
Updated: 09/20/2018 14:53 EDT
Overcast
Overcast
 Wind from NE
Wind: NE 9 km/h
Temperature: 16°C
Dew Point: 11°C
Humidity: 72%
Barometer: 1023.7 hPa
Clouds: Overcast
Visibility: 16 km
Cloud details: Overcast 3353 m
2018/09/20 18:53 KPBG 201853Z AUTO 04005KT 10SM OVC110 16/11 A3023 RMK AO2 SLP239 T01560106
KMSS - Massena, New York, USA
Distance from station: SW 100km
Updated: 09/20/2018 14:53 EDT
Mostly cloudy
Mostly cloudy
 Wind from NE
Wind: NE 17 km/h
Temperature: 16°C
Dew Point: 12°C
Humidity: 77%
Barometer: 1024.4 hPa
Clouds: Mostly cloudy
Visibility: 16 km
Cloud details: Mostly cloudy 3048 m
2018/09/20 18:53 KMSS 201853Z AUTO 04009KT 10SM BKN100 16/12 A3025 RMK AO2 SLP246 T01610117
 
CWBS - Lac St Pierre (a, Quebec, Canada
Distance from station: NE 106km
Updated: 09/20/2018 15:00 EDT

 Wind from S
Wind: S 2 km/h
Temperature: 15°C
Dew Point: 10°C
Humidity: 72%
2018/09/20 19:00 CWBS 201900Z AUTO 19001KT 15/10 RMK AO1 T01540099
KBTV - Burlington, Vermont, USA
Distance from station: SSE 121km
Updated: 09/20/2018 14:54 EDT
Overcast
Overcast
 Wind from calm
Wind: Calm
Temperature: 18°C
Dew Point: 11°C
Humidity: 64%
Barometer: 1023.7 hPa
Clouds: Overcast
Visibility: 16 km
Cloud details: Few Clouds 518 m
Partly cloudy 1981 m
Overcast 5182 m
2018/09/20 18:54 KBTV 201854Z 00000KT 10SM FEW017 SCT065 OVC170 18/11 A3023 RMK AO2 SLP237 MTNS E-SE OBSCD T01780106
 
KSLK - Saranac Lake, New York, USA
Distance from station: SSW 121km
Updated: 09/20/2018 14:51 EDT
Partly cloudy
Partly cloudy
 Wind from NE
Wind: NE 13 km/h
Temperature: 15°C
Dew Point: 11°C
Humidity: 77%
Barometer: 1023.7 hPa
Clouds: Partly cloudy
Visibility: 16 km
Cloud details: Partly cloudy 3048 m
2018/09/20 18:51 KSLK 201851Z AUTO 05007KT 10SM SCT100 15/11 A3023 RMK AO2 SLP244 T01500106
CWNQ - Nicolet (autob), Quebec, Canada
Distance from station: NE 123km
Updated: 09/20/2018 15:00 EDT

 Wind from WNW
Wind: WNW 7 km/h
Temperature: 16°C
Dew Point: 11°C
Humidity: 72%
2018/09/20 19:00 CWNQ 201900Z AUTO 29004KT 16/11 RMK AO1 SLP243 T01580113 56003
 
KMWN - Mount Washington, New Hampshire, USA
Distance from station: SE 237km
Updated: 09/20/2018 14:54 EDT
Fog, Overcast
Fog, Overcast
 Wind from WNW
Wind: WNW 24 km/h
Temperature: 5°C
Wind Chill: 1°C
Dew Point: 5°C
Humidity: 100%
Summary: Fog
Clouds: Overcast
Visibility: 5 km
Cloud details: Mostly cloudy 0 m
Overcast 3048 m
2018/09/20 18:54 KMWN 201854Z 29013KT 3/16SM FG BKN000 OVC100 05/05 RMK FG BKN000 FG INTMT
CYVR - Vancouver Intl A, British Columbia, Canada
Distance from station: NW 3676km
Updated: 09/20/2018 15:24 EDT
Light rain, Showers, Overcast
Light rain, Showers, Overcast
 Wind from SE
Wind: SE 9 km/h
Temperature: 15°C
Dew Point: 11°C
Humidity: 77%
Barometer: 1020 hPa
Summary: Light rain, Showers
Clouds: Overcast
Visibility: 24 km
Cloud details: Few Clouds 305 m
Few Clouds 640 m
Mostly cloudy 1280 m
Mostly cloudy 1981 m
Overcast 2164 m
2018/09/20 19:24 CYVR 201924Z 13005KT 15SM -SHRA FEW010 FEW021 BKN042 BKN065 OVC071 15/11 A3012 RMK CU1CU1CU3SC1AC2 PCPN VRY LGT SLP200